sensor_id;sensor_type;location;lat;lon;timestamp;P1;durP1;ratioP1;P2;durP2;ratioP2
23123;SDS011;11731;48.592;8.858;2023-05-07T00:01:40;6.20;;;4.90;;
23123;SDS011;11731;48.592;8.858;2023-05-07T00:04:08;5.30;;;4.20;;
23123;SDS011;11731;48.592;8.858;2023-05-07T00:06:35;5.83;;;4.13;;
23123;SDS011;11731;48.592;8.858;2023-05-07T00:09:02;4.17;;;3.77;;
23123;SDS011;11731;48.592;8.858;2023-05-07T00:14:43;5.53;;;3.97;;
23123;SDS011;11731;48.592;8.858;2023-05-07T00:17:10;6.40;;;3.60;;
23123;SDS011;11731;48.592;8.858;2023-05-07T00:19:37;5.53;;;3.33;;
23123;SDS011;11731;48.592;8.858;2023-05-07T00:22:04;5.47;;;3.17;;
23123;SDS011;11731;48.592;8.858;2023-05-07T00:24:31;5.10;;;3.50;;
23123;SDS011;11731;48.592;8.858;2023-05-07T00:27:11;4.43;;;3.40;;
23123;SDS011;11731;48.592;8.858;2023-05-07T00:29:38;3.60;;;2.93;;
23123;SDS011;11731;48.592;8.858;2023-05-07T00:32:09;4.53;;;2.77;;
23123;SDS011;11731;48.592;8.858;2023-05-07T00:34:36;4.93;;;3.20;;
23123;SDS011;11731;48.592;8.858;2023-05-07T00:37:04;4.43;;;3.40;;
23123;SDS011;11731;48.592;8.858;2023-05-07T00:39:32;3.63;;;2.80;;
23123;SDS011;11731;48.592;8.858;2023-05-07T00:42:28;4.37;;;2.80;;
23123;SDS011;11731;48.592;8.858;2023-05-07T00:44:55;3.93;;;2.93;;
23123;SDS011;11731;48.592;8.858;2023-05-07T00:47:23;3.17;;;2.87;;
23123;SDS011;11731;48.592;8.858;2023-05-07T00:49:51;4.97;;;2.90;;
23123;SDS011;11731;48.592;8.858;2023-05-07T00:52:18;5.33;;;3.23;;
23123;SDS011;11731;48.592;8.858;2023-05-07T00:55:28;3.50;;;2.97;;
23123;SDS011;11731;48.592;8.858;2023-05-07T00:58:42;3.87;;;2.80;;
23123;SDS011;11731;48.592;8.858;2023-05-07T01:01:02;4.50;;;3.03;;
23123;SDS011;11731;48.592;8.858;2023-05-07T01:03:31;3.80;;;3.00;;
23123;SDS011;11731;48.592;8.858;2023-05-07T01:06:14;4.30;;;2.97;;
23123;SDS011;11731;48.592;8.858;2023-05-07T01:08:42;3.87;;;3.00;;
23123;SDS011;11731;48.592;8.858;2023-05-07T01:11:36;4.57;;;3.33;;
23123;SDS011;11731;48.592;8.858;2023-05-07T01:14:03;5.63;;;2.97;;
23123;SDS011;11731;48.592;8.858;2023-05-07T01:16:30;5.73;;;2.83;;
23123;SDS011;11731;48.592;8.858;2023-05-07T01:19:00;5.47;;;3.27;;
23123;SDS011;11731;48.592;8.858;2023-05-07T01:21:32;3.77;;;3.03;;
23123;SDS011;11731;48.592;8.858;2023-05-07T01:24:01;4.13;;;2.57;;
23123;SDS011;11731;48.592;8.858;2023-05-07T01:26:29;4.70;;;3.00;;
23123;SDS011;11731;48.592;8.858;2023-05-07T01:28:56;5.13;;;3.23;;
23123;SDS011;11731;48.592;8.858;2023-05-07T01:31:23;3.23;;;2.93;;
23123;SDS011;11731;48.592;8.858;2023-05-07T01:34:13;3.90;;;2.70;;
23123;SDS011;11731;48.592;8.858;2023-05-07T01:36:43;4.70;;;3.33;;
23123;SDS011;11731;48.592;8.858;2023-05-07T01:39:14;3.07;;;2.87;;
23123;SDS011;11731;48.592;8.858;2023-05-07T01:41:42;4.57;;;2.77;;
23123;SDS011;11731;48.592;8.858;2023-05-07T01:47:43;4.33;;;2.77;;
23123;SDS011;11731;48.592;8.858;2023-05-07T01:50:11;5.40;;;2.70;;
23123;SDS011;11731;48.592;8.858;2023-05-07T01:52:38;5.83;;;3.13;;
23123;SDS011;11731;48.592;8.858;2023-05-07T01:55:07;6.37;;;3.57;;
23123;SDS011;11731;48.592;8.858;2023-05-07T01:57:34;3.20;;;2.90;;
23123;SDS011;11731;48.592;8.858;2023-05-07T02:00:01;5.07;;;3.17;;
23123;SDS011;11731;48.592;8.858;2023-05-07T02:02:33;3.77;;;2.87;;
23123;SDS011;11731;48.592;8.858;2023-05-07T02:05:00;4.43;;;3.23;;
23123;SDS011;11731;48.592;8.858;2023-05-07T02:07:27;4.27;;;3.13;;
23123;SDS011;11731;48.592;8.858;2023-05-07T02:10:18;3.90;;;2.90;;
23123;SDS011;11731;48.592;8.858;2023-05-07T02:15:20;4.90;;;3.40;;
23123;SDS011;11731;48.592;8.858;2023-05-07T02:18:00;4.90;;;3.13;;
23123;SDS011;11731;48.592;8.858;2023-05-07T02:20:28;4.40;;;3.10;;
23123;SDS011;11731;48.592;8.858;2023-05-07T02:22:58;3.37;;;3.07;;
23123;SDS011;11731;48.592;8.858;2023-05-07T02:28:39;3.57;;;2.53;;
23123;SDS011;11731;48.592;8.858;2023-05-07T02:31:06;3.23;;;2.70;;
23123;SDS011;11731;48.592;8.858;2023-05-07T02:33:33;3.80;;;3.30;;
23123;SDS011;11731;48.592;8.858;2023-05-07T02:36:07;5.90;;;3.30;;
23123;SDS011;11731;48.592;8.858;2023-05-07T02:38:34;4.73;;;2.77;;
23123;SDS011;11731;48.592;8.858;2023-05-07T02:41:04;3.47;;;2.93;;
23123;SDS011;11731;48.592;8.858;2023-05-07T02:43:35;4.27;;;3.20;;
23123;SDS011;11731;48.592;8.858;2023-05-07T02:46:03;4.50;;;3.27;;
23123;SDS011;11731;48.592;8.858;2023-05-07T02:48:32;3.10;;;2.77;;
23123;SDS011;11731;48.592;8.858;2023-05-07T02:50:59;3.67;;;3.30;;
23123;SDS011;11731;48.592;8.858;2023-05-07T02:53:26;3.90;;;3.00;;
23123;SDS011;11731;48.592;8.858;2023-05-07T02:55:54;6.33;;;3.10;;
23123;SDS011;11731;48.592;8.858;2023-05-07T02:58:22;3.40;;;3.10;;
23123;SDS011;11731;48.592;8.858;2023-05-07T03:00:49;3.50;;;2.60;;
23123;SDS011;11731;48.592;8.858;2023-05-07T03:03:17;3.80;;;3.10;;
23123;SDS011;11731;48.592;8.858;2023-05-07T03:05:44;3.97;;;3.30;;
23123;SDS011;11731;48.592;8.858;2023-05-07T03:08:11;4.50;;;3.40;;
23123;SDS011;11731;48.592;8.858;2023-05-07T03:10:38;4.10;;;3.03;;
23123;SDS011;11731;48.592;8.858;2023-05-07T03:13:05;3.67;;;3.13;;
23123;SDS011;11731;48.592;8.858;2023-05-07T03:15:32;4.23;;;3.10;;
23123;SDS011;11731;48.592;8.858;2023-05-07T03:17:59;3.53;;;3.23;;
23123;SDS011;11731;48.592;8.858;2023-05-07T03:20:27;3.87;;;3.10;;
23123;SDS011;11731;48.592;8.858;2023-05-07T03:22:54;3.73;;;3.03;;
23123;SDS011;11731;48.592;8.858;2023-05-07T03:25:21;3.57;;;3.27;;
23123;SDS011;11731;48.592;8.858;2023-05-07T03:27:48;4.43;;;3.23;;
23123;SDS011;11731;48.592;8.858;2023-05-07T03:30:15;3.33;;;3.03;;
23123;SDS011;11731;48.592;8.858;2023-05-07T03:32:42;3.73;;;3.37;;
23123;SDS011;11731;48.592;8.858;2023-05-07T03:35:08;5.03;;;3.20;;
23123;SDS011;11731;48.592;8.858;2023-05-07T03:37:37;5.83;;;3.17;;
23123;SDS011;11731;48.592;8.858;2023-05-07T03:40:04;3.63;;;3.10;;
23123;SDS011;11731;48.592;8.858;2023-05-07T03:42:32;3.87;;;3.47;;
23123;SDS011;11731;48.592;8.858;2023-05-07T03:44:59;4.17;;;3.30;;
23123;SDS011;11731;48.592;8.858;2023-05-07T03:47:26;5.30;;;3.00;;
23123;SDS011;11731;48.592;8.858;2023-05-07T03:49:53;4.13;;;3.17;;
23123;SDS011;11731;48.592;8.858;2023-05-07T03:52:20;3.57;;;3.27;;
23123;SDS011;11731;48.592;8.858;2023-05-07T03:54:52;4.70;;;3.60;;
23123;SDS011;11731;48.592;8.858;2023-05-07T03:57:19;4.10;;;3.10;;
23123;SDS011;11731;48.592;8.858;2023-05-07T03:59:46;3.40;;;3.00;;
23123;SDS011;11731;48.592;8.858;2023-05-07T04:02:13;3.50;;;3.20;;
23123;SDS011;11731;48.592;8.858;2023-05-07T04:04:39;4.70;;;3.20;;
23123;SDS011;11731;48.592;8.858;2023-05-07T04:07:06;4.60;;;3.43;;
23123;SDS011;11731;48.592;8.858;2023-05-07T04:09:33;4.87;;;3.00;;
23123;SDS011;11731;48.592;8.858;2023-05-07T04:12:01;4.57;;;3.47;;
23123;SDS011;11731;48.592;8.858;2023-05-07T04:14:28;4.43;;;3.60;;
23123;SDS011;11731;48.592;8.858;2023-05-07T04:16:57;4.23;;;3.70;;
23123;SDS011;11731;48.592;8.858;2023-05-07T04:19:24;4.80;;;3.43;;
23123;SDS011;11731;48.592;8.858;2023-05-07T04:21:51;4.47;;;3.00;;
23123;SDS011;11731;48.592;8.858;2023-05-07T04:24:18;4.53;;;3.73;;
23123;SDS011;11731;48.592;8.858;2023-05-07T04:26:45;3.87;;;3.47;;
23123;SDS011;11731;48.592;8.858;2023-05-07T04:29:13;4.70;;;3.60;;
23123;SDS011;11731;48.592;8.858;2023-05-07T04:31:40;3.70;;;3.40;;
23123;SDS011;11731;48.592;8.858;2023-05-07T04:34:09;3.50;;;3.20;;
23123;SDS011;11731;48.592;8.858;2023-05-07T04:36:36;5.03;;;4.07;;
23123;SDS011;11731;48.592;8.858;2023-05-07T04:39:03;5.00;;;3.27;;
23123;SDS011;11731;48.592;8.858;2023-05-07T04:41:31;4.83;;;2.97;;
23123;SDS011;11731;48.592;8.858;2023-05-07T04:43:57;5.33;;;3.10;;
23123;SDS011;11731;48.592;8.858;2023-05-07T04:46:26;3.50;;;3.00;;
23123;SDS011;11731;48.592;8.858;2023-05-07T04:48:53;3.93;;;3.43;;
23123;SDS011;11731;48.592;8.858;2023-05-07T04:51:19;5.03;;;3.47;;
23123;SDS011;11731;48.592;8.858;2023-05-07T04:53:47;3.50;;;3.20;;
23123;SDS011;11731;48.592;8.858;2023-05-07T04:56:13;4.87;;;2.80;;
23123;SDS011;11731;48.592;8.858;2023-05-07T04:58:40;5.90;;;3.03;;
23123;SDS011;11731;48.592;8.858;2023-05-07T05:01:07;4.53;;;3.40;;
23123;SDS011;11731;48.592;8.858;2023-05-07T05:03:35;5.67;;;3.03;;
23123;SDS011;11731;48.592;8.858;2023-05-07T05:06:02;4.20;;;2.73;;
23123;SDS011;11731;48.592;8.858;2023-05-07T05:08:29;3.53;;;2.90;;
23123;SDS011;11731;48.592;8.858;2023-05-07T05:10:56;3.30;;;3.00;;
23123;SDS011;11731;48.592;8.858;2023-05-07T05:13:23;3.73;;;3.30;;
23123;SDS011;11731;48.592;8.858;2023-05-07T05:15:50;3.50;;;3.10;;
23123;SDS011;11731;48.592;8.858;2023-05-07T05:18:17;3.47;;;2.50;;
23123;SDS011;11731;48.592;8.858;2023-05-07T05:20:45;3.17;;;2.83;;
23123;SDS011;11731;48.592;8.858;2023-05-07T05:23:12;3.33;;;3.03;;
23123;SDS011;11731;48.592;8.858;2023-05-07T05:25:39;3.80;;;2.77;;
23123;SDS011;11731;48.592;8.858;2023-05-07T05:28:05;3.80;;;2.83;;
23123;SDS011;11731;48.592;8.858;2023-05-07T05:30:32;3.67;;;3.03;;
23123;SDS011;11731;48.592;8.858;2023-05-07T05:32:59;3.00;;;2.73;;
23123;SDS011;11731;48.592;8.858;2023-05-07T05:35:26;3.17;;;2.97;;
23123;SDS011;11731;48.592;8.858;2023-05-07T05:37:54;3.37;;;3.07;;
23123;SDS011;11731;48.592;8.858;2023-05-07T05:40:21;4.83;;;3.57;;
23123;SDS011;11731;48.592;8.858;2023-05-07T05:42:48;3.47;;;2.90;;
23123;SDS011;11731;48.592;8.858;2023-05-07T05:45:15;3.30;;;3.00;;
23123;SDS011;11731;48.592;8.858;2023-05-07T05:47:42;4.00;;;2.70;;
23123;SDS011;11731;48.592;8.858;2023-05-07T05:50:09;3.90;;;3.07;;
23123;SDS011;11731;48.592;8.858;2023-05-07T05:52:36;3.10;;;2.80;;
23123;SDS011;11731;48.592;8.858;2023-05-07T05:55:05;4.63;;;3.20;;
23123;SDS011;11731;48.592;8.858;2023-05-07T05:57:32;3.40;;;3.10;;
23123;SDS011;11731;48.592;8.858;2023-05-07T05:59:59;4.20;;;3.07;;
23123;SDS011;11731;48.592;8.858;2023-05-07T06:02:27;3.47;;;3.10;;
23123;SDS011;11731;48.592;8.858;2023-05-07T06:04:54;3.77;;;2.87;;
23123;SDS011;11731;48.592;8.858;2023-05-07T06:07:21;3.73;;;3.20;;
23123;SDS011;11731;48.592;8.858;2023-05-07T06:09:48;4.37;;;2.93;;
23123;SDS011;11731;48.592;8.858;2023-05-07T06:12:16;3.50;;;3.00;;
23123;SDS011;11731;48.592;8.858;2023-05-07T06:14:43;4.50;;;3.53;;
23123;SDS011;11731;48.592;8.858;2023-05-07T06:17:10;4.77;;;2.87;;
23123;SDS011;11731;48.592;8.858;2023-05-07T06:19:36;7.90;;;3.60;;
23123;SDS011;11731;48.592;8.858;2023-05-07T06:22:03;4.73;;;3.30;;
23123;SDS011;11731;48.592;8.858;2023-05-07T06:24:30;6.07;;;3.10;;
23123;SDS011;11731;48.592;8.858;2023-05-07T06:26:57;6.77;;;3.70;;
23123;SDS011;11731;48.592;8.858;2023-05-07T06:29:25;4.67;;;3.97;;
23123;SDS011;11731;48.592;8.858;2023-05-07T06:31:52;6.07;;;3.70;;
23123;SDS011;11731;48.592;8.858;2023-05-07T06:34:19;4.50;;;3.57;;
23123;SDS011;11731;48.592;8.858;2023-05-07T06:36:46;4.40;;;3.50;;
23123;SDS011;11731;48.592;8.858;2023-05-07T06:39:13;5.00;;;4.00;;
23123;SDS011;11731;48.592;8.858;2023-05-07T06:41:40;4.30;;;3.17;;
23123;SDS011;11731;48.592;8.858;2023-05-07T06:44:07;4.10;;;3.70;;
23123;SDS011;11731;48.592;8.858;2023-05-07T06:46:35;4.50;;;3.20;;
23123;SDS011;11731;48.592;8.858;2023-05-07T06:49:02;4.73;;;3.00;;
23123;SDS011;11731;48.592;8.858;2023-05-07T06:51:28;3.37;;;3.07;;
23123;SDS011;11731;48.592;8.858;2023-05-07T06:53:55;3.77;;;3.23;;
23123;SDS011;11731;48.592;8.858;2023-05-07T06:56:22;3.60;;;3.17;;
23123;SDS011;11731;48.592;8.858;2023-05-07T06:58:50;4.83;;;3.33;;
23123;SDS011;11731;48.592;8.858;2023-05-07T07:01:16;3.40;;;3.10;;
23123;SDS011;11731;48.592;8.858;2023-05-07T07:03:45;5.77;;;3.57;;
23123;SDS011;11731;48.592;8.858;2023-05-07T07:06:11;6.27;;;3.40;;
23123;SDS011;11731;48.592;8.858;2023-05-07T07:08:38;3.80;;;3.40;;
23123;SDS011;11731;48.592;8.858;2023-05-07T07:11:05;4.20;;;3.10;;
23123;SDS011;11731;48.592;8.858;2023-05-07T07:13:32;4.27;;;3.40;;
23123;SDS011;11731;48.592;8.858;2023-05-07T07:15:59;5.13;;;3.30;;
23123;SDS011;11731;48.592;8.858;2023-05-07T07:18:26;3.23;;;3.00;;
23123;SDS011;11731;48.592;8.858;2023-05-07T07:20:54;3.77;;;3.40;;
23123;SDS011;11731;48.592;8.858;2023-05-07T07:23:21;5.27;;;3.63;;
23123;SDS011;11731;48.592;8.858;2023-05-07T07:25:48;5.50;;;3.40;;
23123;SDS011;11731;48.592;8.858;2023-05-07T07:28:15;5.50;;;3.23;;
23123;SDS011;11731;48.592;8.858;2023-05-07T07:30:43;3.93;;;3.17;;
23123;SDS011;11731;48.592;8.858;2023-05-07T07:33:10;3.83;;;2.83;;
23123;SDS011;11731;48.592;8.858;2023-05-07T07:35:37;3.53;;;3.13;;
23123;SDS011;11731;48.592;8.858;2023-05-07T07:38:05;3.83;;;3.43;;
23123;SDS011;11731;48.592;8.858;2023-05-07T07:40:34;3.47;;;3.17;;
23123;SDS011;11731;48.592;8.858;2023-05-07T07:43:01;3.40;;;3.10;;
23123;SDS011;11731;48.592;8.858;2023-05-07T07:45:28;5.87;;;3.30;;
23123;SDS011;11731;48.592;8.858;2023-05-07T07:47:55;4.50;;;3.10;;
23123;SDS011;11731;48.592;8.858;2023-05-07T07:50:22;6.17;;;3.37;;
23123;SDS011;11731;48.592;8.858;2023-05-07T07:52:49;3.73;;;3.30;;
23123;SDS011;11731;48.592;8.858;2023-05-07T07:55:19;3.60;;;3.03;;
23123;SDS011;11731;48.592;8.858;2023-05-07T07:57:48;4.07;;;2.83;;
23123;SDS011;11731;48.592;8.858;2023-05-07T08:00:15;4.93;;;3.20;;
23123;SDS011;11731;48.592;8.858;2023-05-07T08:02:42;3.53;;;3.23;;
23123;SDS011;11731;48.592;8.858;2023-05-07T08:05:10;6.00;;;3.00;;
23123;SDS011;11731;48.592;8.858;2023-05-07T08:07:37;3.43;;;3.13;;
23123;SDS011;11731;48.592;8.858;2023-05-07T08:10:05;3.27;;;2.97;;
23123;SDS011;11731;48.592;8.858;2023-05-07T08:12:34;4.90;;;3.80;;
23123;SDS011;11731;48.592;8.858;2023-05-07T08:15:02;3.40;;;2.93;;
23123;SDS011;11731;48.592;8.858;2023-05-07T08:17:30;4.77;;;3.50;;
23123;SDS011;11731;48.592;8.858;2023-05-07T08:19:56;3.27;;;2.97;;
23123;SDS011;11731;48.592;8.858;2023-05-07T08:22:23;4.33;;;3.10;;
23123;SDS011;11731;48.592;8.858;2023-05-07T08:24:50;3.50;;;3.20;;
23123;SDS011;11731;48.592;8.858;2023-05-07T08:27:18;4.20;;;3.10;;
23123;SDS011;11731;48.592;8.858;2023-05-07T08:29:46;3.17;;;2.90;;
23123;SDS011;11731;48.592;8.858;2023-05-07T08:32:13;3.43;;;2.90;;
23123;SDS011;11731;48.592;8.858;2023-05-07T08:34:40;3.77;;;3.17;;
23123;SDS011;11731;48.592;8.858;2023-05-07T08:37:07;4.00;;;3.40;;
23123;SDS011;11731;48.592;8.858;2023-05-07T08:39:34;3.07;;;2.73;;
23123;SDS011;11731;48.592;8.858;2023-05-07T08:42:01;4.43;;;3.27;;
23123;SDS011;11731;48.592;8.858;2023-05-07T08:44:31;4.67;;;3.17;;
23123;SDS011;11731;48.592;8.858;2023-05-07T08:47:01;3.10;;;2.80;;
23123;SDS011;11731;48.592;8.858;2023-05-07T08:49:31;3.87;;;3.20;;
23123;SDS011;11731;48.592;8.858;2023-05-07T08:52:02;4.87;;;3.00;;
23123;SDS011;11731;48.592;8.858;2023-05-07T08:54:42;3.80;;;3.03;;
23123;SDS011;11731;48.592;8.858;2023-05-07T08:57:09;3.30;;;3.00;;
23123;SDS011;11731;48.592;8.858;2023-05-07T08:59:36;3.87;;;2.83;;
23123;SDS011;11731;48.592;8.858;2023-05-07T09:02:04;3.40;;;3.10;;
23123;SDS011;11731;48.592;8.858;2023-05-07T09:04:34;3.27;;;2.97;;
23123;SDS011;11731;48.592;8.858;2023-05-07T09:07:01;3.03;;;2.80;;
23123;SDS011;11731;48.592;8.858;2023-05-07T09:09:31;8.03;;;2.80;;
23123;SDS011;11731;48.592;8.858;2023-05-07T09:11:58;3.77;;;3.13;;
23123;SDS011;11731;48.592;8.858;2023-05-07T09:14:27;3.03;;;2.73;;
23123;SDS011;11731;48.592;8.858;2023-05-07T09:16:53;3.23;;;2.87;;
23123;SDS011;11731;48.592;8.858;2023-05-07T09:19:23;3.03;;;2.60;;
23123;SDS011;11731;48.592;8.858;2023-05-07T09:21:57;4.03;;;2.70;;
23123;SDS011;11731;48.592;8.858;2023-05-07T09:24:24;3.53;;;2.17;;
23123;SDS011;11731;48.592;8.858;2023-05-07T09:26:53;3.23;;;2.67;;
23123;SDS011;11731;48.592;8.858;2023-05-07T09:29:20;4.20;;;2.77;;
23123;SDS011;11731;48.592;8.858;2023-05-07T09:31:47;2.87;;;2.57;;
23123;SDS011;11731;48.592;8.858;2023-05-07T09:34:14;3.17;;;2.57;;
23123;SDS011;11731;48.592;8.858;2023-05-07T09:36:43;5.00;;;2.50;;
23123;SDS011;11731;48.592;8.858;2023-05-07T09:39:10;3.93;;;2.53;;
23123;SDS011;11731;48.592;8.858;2023-05-07T09:41:43;6.17;;;2.57;;
23123;SDS011;11731;48.592;8.858;2023-05-07T09:44:10;4.13;;;3.20;;
23123;SDS011;11731;48.592;8.858;2023-05-07T09:46:38;5.37;;;2.53;;
23123;SDS011;11731;48.592;8.858;2023-05-07T09:49:07;3.37;;;2.40;;
23123;SDS011;11731;48.592;8.858;2023-05-07T09:51:39;4.80;;;2.40;;
23123;SDS011;11731;48.592;8.858;2023-05-07T09:54:13;3.03;;;2.47;;
23123;SDS011;11731;48.592;8.858;2023-05-07T09:56:40;2.50;;;2.30;;
23123;SDS011;11731;48.592;8.858;2023-05-07T09:59:08;4.43;;;2.73;;
23123;SDS011;11731;48.592;8.858;2023-05-07T10:01:38;2.83;;;2.50;;
23123;SDS011;11731;48.592;8.858;2023-05-07T10:04:08;3.90;;;2.60;;
23123;SDS011;11731;48.592;8.858;2023-05-07T10:06:36;2.60;;;2.40;;
23123;SDS011;11731;48.592;8.858;2023-05-07T10:09:03;4.97;;;2.47;;
23123;SDS011;11731;48.592;8.858;2023-05-07T10:11:33;2.90;;;2.70;;
23123;SDS011;11731;48.592;8.858;2023-05-07T10:14:01;4.57;;;2.40;;
23123;SDS011;11731;48.592;8.858;2023-05-07T10:16:28;6.03;;;2.50;;
23123;SDS011;11731;48.592;8.858;2023-05-07T10:19:01;3.03;;;2.30;;
23123;SDS011;11731;48.592;8.858;2023-05-07T10:21:28;2.70;;;2.30;;
23123;SDS011;11731;48.592;8.858;2023-05-07T10:23:58;2.80;;;2.40;;
23123;SDS011;11731;48.592;8.858;2023-05-07T10:26:26;5.07;;;2.70;;
23123;SDS011;11731;48.592;8.858;2023-05-07T10:28:58;4.50;;;2.60;;
23123;SDS011;11731;48.592;8.858;2023-05-07T10:31:34;2.57;;;2.37;;
23123;SDS011;11731;48.592;8.858;2023-05-07T10:34:13;2.10;;;2.00;;
23123;SDS011;11731;48.592;8.858;2023-05-07T10:36:43;3.97;;;2.47;;
23123;SDS011;11731;48.592;8.858;2023-05-07T10:39:11;2.80;;;1.97;;
23123;SDS011;11731;48.592;8.858;2023-05-07T10:41:38;4.63;;;2.40;;
23123;SDS011;11731;48.592;8.858;2023-05-07T10:44:07;2.83;;;2.20;;
23123;SDS011;11731;48.592;8.858;2023-05-07T10:46:34;2.17;;;1.97;;
23123;SDS011;11731;48.592;8.858;2023-05-07T10:49:10;3.97;;;1.93;;
23123;SDS011;11731;48.592;8.858;2023-05-07T10:51:40;5.40;;;2.20;;
23123;SDS011;11731;48.592;8.858;2023-05-07T10:54:20;2.00;;;1.80;;
23123;SDS011;11731;48.592;8.858;2023-05-07T10:56:48;2.33;;;1.77;;
23123;SDS011;11731;48.592;8.858;2023-05-07T10:59:36;2.13;;;1.83;;
23123;SDS011;11731;48.592;8.858;2023-05-07T11:02:09;3.50;;;2.10;;
23123;SDS011;11731;48.592;8.858;2023-05-07T11:04:39;1.93;;;1.80;;
23123;SDS011;11731;48.592;8.858;2023-05-07T11:07:29;2.90;;;1.80;;
23123;SDS011;11731;48.592;8.858;2023-05-07T11:09:57;2.77;;;2.27;;
23123;SDS011;11731;48.592;8.858;2023-05-07T11:18:02;1.90;;;1.80;;
23123;SDS011;11731;48.592;8.858;2023-05-07T11:26:27;3.03;;;1.80;;
23123;SDS011;11731;48.592;8.858;2023-05-07T11:28:55;1.97;;;1.57;;
23123;SDS011;11731;48.592;8.858;2023-05-07T11:31:25;1.97;;;1.80;;
23123;SDS011;11731;48.592;8.858;2023-05-07T11:33:53;2.40;;;1.70;;
23123;SDS011;11731;48.592;8.858;2023-05-07T11:36:22;3.47;;;1.73;;
23123;SDS011;11731;48.592;8.858;2023-05-07T11:38:50;3.57;;;2.07;;
23123;SDS011;11731;48.592;8.858;2023-05-07T11:41:17;3.30;;;2.03;;
23123;SDS011;11731;48.592;8.858;2023-05-07T11:43:58;3.90;;;2.00;;
23123;SDS011;11731;48.592;8.858;2023-05-07T11:46:27;1.97;;;1.87;;
23123;SDS011;11731;48.592;8.858;2023-05-07T11:48:55;2.67;;;2.20;;
23123;SDS011;11731;48.592;8.858;2023-05-07T11:51:23;2.87;;;2.00;;
23123;SDS011;11731;48.592;8.858;2023-05-07T11:53:52;3.77;;;1.70;;
23123;SDS011;11731;48.592;8.858;2023-05-07T11:56:19;3.83;;;2.43;;
23123;SDS011;11731;48.592;8.858;2023-05-07T11:58:46;4.43;;;1.77;;
23123;SDS011;11731;48.592;8.858;2023-05-07T12:01:14;2.80;;;1.90;;
23123;SDS011;11731;48.592;8.858;2023-05-07T12:03:45;3.03;;;1.90;;
23123;SDS011;11731;48.592;8.858;2023-05-07T12:06:12;1.93;;;1.60;;
23123;SDS011;11731;48.592;8.858;2023-05-07T12:08:41;3.07;;;1.73;;
23123;SDS011;11731;48.592;8.858;2023-05-07T12:11:08;5.27;;;2.00;;
23123;SDS011;11731;48.592;8.858;2023-05-07T12:13:38;2.63;;;1.80;;
23123;SDS011;11731;48.592;8.858;2023-05-07T12:16:05;3.60;;;2.70;;
23123;SDS011;11731;48.592;8.858;2023-05-07T12:18:33;2.47;;;2.27;;
23123;SDS011;11731;48.592;8.858;2023-05-07T12:21:03;2.03;;;1.80;;
23123;SDS011;11731;48.592;8.858;2023-05-07T12:23:31;4.23;;;2.00;;
23123;SDS011;11731;48.592;8.858;2023-05-07T12:25:58;3.37;;;2.03;;
23123;SDS011;11731;48.592;8.858;2023-05-07T12:28:25;2.50;;;2.30;;
23123;SDS011;11731;48.592;8.858;2023-05-07T12:30:52;2.30;;;2.10;;
23123;SDS011;11731;48.592;8.858;2023-05-07T12:33:23;3.93;;;2.37;;
23123;SDS011;11731;48.592;8.858;2023-05-07T12:35:53;4.20;;;2.33;;
23123;SDS011;11731;48.592;8.858;2023-05-07T12:38:22;3.67;;;2.10;;
23123;SDS011;11731;48.592;8.858;2023-05-07T12:40:50;2.60;;;2.40;;
23123;SDS011;11731;48.592;8.858;2023-05-07T12:43:20;4.10;;;2.20;;
23123;SDS011;11731;48.592;8.858;2023-05-07T12:45:48;5.63;;;2.50;;
23123;SDS011;11731;48.592;8.858;2023-05-07T12:48:16;2.40;;;2.17;;
23123;SDS011;11731;48.592;8.858;2023-05-07T12:50:45;2.33;;;1.87;;
23123;SDS011;11731;48.592;8.858;2023-05-07T12:53:15;2.80;;;2.10;;
23123;SDS011;11731;48.592;8.858;2023-05-07T12:55:44;3.50;;;2.10;;
23123;SDS011;11731;48.592;8.858;2023-05-07T12:58:18;3.73;;;2.47;;
23123;SDS011;11731;48.592;8.858;2023-05-07T13:00:47;4.73;;;2.30;;
23123;SDS011;11731;48.592;8.858;2023-05-07T13:03:22;5.20;;;2.83;;
23123;SDS011;11731;48.592;8.858;2023-05-07T13:05:50;3.50;;;2.57;;
23123;SDS011;11731;48.592;8.858;2023-05-07T13:08:23;5.37;;;2.80;;
23123;SDS011;11731;48.592;8.858;2023-05-07T13:10:53;4.83;;;2.93;;
23123;SDS011;11731;48.592;8.858;2023-05-07T13:13:20;5.70;;;4.03;;
23123;SDS011;11731;48.592;8.858;2023-05-07T13:15:47;4.27;;;3.10;;
23123;SDS011;11731;48.592;8.858;2023-05-07T13:18:14;6.27;;;3.03;;
23123;SDS011;11731;48.592;8.858;2023-05-07T13:20:41;4.20;;;2.70;;
23123;SDS011;11731;48.592;8.858;2023-05-07T13:23:08;5.37;;;2.67;;
23123;SDS011;11731;48.592;8.858;2023-05-07T13:25:35;3.83;;;3.10;;
23123;SDS011;11731;48.592;8.858;2023-05-07T13:28:03;7.40;;;3.33;;
23123;SDS011;11731;48.592;8.858;2023-05-07T13:30:30;4.67;;;3.23;;
23123;SDS011;11731;48.592;8.858;2023-05-07T13:32:57;4.80;;;3.30;;
23123;SDS011;11731;48.592;8.858;2023-05-07T13:35:24;4.83;;;3.27;;
23123;SDS011;11731;48.592;8.858;2023-05-07T13:37:50;4.10;;;2.73;;
23123;SDS011;11731;48.592;8.858;2023-05-07T13:40:19;4.83;;;2.80;;
23123;SDS011;11731;48.592;8.858;2023-05-07T13:42:46;5.27;;;3.10;;
23123;SDS011;11731;48.592;8.858;2023-05-07T13:45:15;3.80;;;3.30;;
23123;SDS011;11731;48.592;8.858;2023-05-07T13:47:42;7.53;;;3.50;;
23123;SDS011;11731;48.592;8.858;2023-05-07T13:50:09;4.90;;;3.27;;
23123;SDS011;11731;48.592;8.858;2023-05-07T13:52:38;3.47;;;3.17;;
23123;SDS011;11731;48.592;8.858;2023-05-07T13:55:08;4.60;;;3.37;;
23123;SDS011;11731;48.592;8.858;2023-05-07T13:57:35;7.97;;;3.63;;
23123;SDS011;11731;48.592;8.858;2023-05-07T14:00:02;7.70;;;3.60;;
23123;SDS011;11731;48.592;8.858;2023-05-07T14:02:31;7.97;;;3.90;;
23123;SDS011;11731;48.592;8.858;2023-05-07T14:04:58;6.77;;;3.60;;
23123;SDS011;11731;48.592;8.858;2023-05-07T14:07:25;5.13;;;3.20;;
23123;SDS011;11731;48.592;8.858;2023-05-07T14:09:52;4.40;;;3.50;;
23123;SDS011;11731;48.592;8.858;2023-05-07T14:12:19;4.97;;;3.87;;
23123;SDS011;11731;48.592;8.858;2023-05-07T14:14:45;10.50;;;4.30;;
23123;SDS011;11731;48.592;8.858;2023-05-07T14:17:14;4.53;;;4.03;;
23123;SDS011;11731;48.592;8.858;2023-05-07T14:19:43;5.83;;;3.63;;
23123;SDS011;11731;48.592;8.858;2023-05-07T14:22:10;5.23;;;3.30;;
23123;SDS011;11731;48.592;8.858;2023-05-07T14:24:37;5.37;;;3.30;;
23123;SDS011;11731;48.592;8.858;2023-05-07T14:27:04;4.07;;;3.50;;
23123;SDS011;11731;48.592;8.858;2023-05-07T14:29:31;5.00;;;3.80;;
23123;SDS011;11731;48.592;8.858;2023-05-07T14:32:00;5.43;;;4.00;;
23123;SDS011;11731;48.592;8.858;2023-05-07T14:34:27;6.07;;;3.40;;
23123;SDS011;11731;48.592;8.858;2023-05-07T14:36:55;4.10;;;3.00;;
23123;SDS011;11731;48.592;8.858;2023-05-07T14:39:22;3.07;;;2.73;;
23123;SDS011;11731;48.592;8.858;2023-05-07T14:41:49;6.87;;;3.47;;
23123;SDS011;11731;48.592;8.858;2023-05-07T14:44:16;3.63;;;3.33;;
23123;SDS011;11731;48.592;8.858;2023-05-07T14:46:42;3.80;;;3.40;;
23123;SDS011;11731;48.592;8.858;2023-05-07T14:49:09;5.23;;;3.40;;
23123;SDS011;11731;48.592;8.858;2023-05-07T14:51:42;3.27;;;2.43;;
23123;SDS011;11731;48.592;8.858;2023-05-07T14:54:10;3.63;;;2.33;;
23123;SDS011;11731;48.592;8.858;2023-05-07T14:56:37;4.57;;;2.10;;
23123;SDS011;11731;48.592;8.858;2023-05-07T14:59:04;2.60;;;2.27;;
23123;SDS011;11731;48.592;8.858;2023-05-07T15:01:31;3.30;;;2.50;;
23123;SDS011;11731;48.592;8.858;2023-05-07T15:03:59;2.20;;;2.00;;
23123;SDS011;11731;48.592;8.858;2023-05-07T15:06:26;2.50;;;2.20;;
23123;SDS011;11731;48.592;8.858;2023-05-07T15:08:52;3.10;;;1.80;;
23123;SDS011;11731;48.592;8.858;2023-05-07T15:11:21;2.60;;;2.00;;
23123;SDS011;11731;48.592;8.858;2023-05-07T15:13:47;3.67;;;1.93;;
23123;SDS011;11731;48.592;8.858;2023-05-07T15:16:15;3.40;;;2.00;;
23123;SDS011;11731;48.592;8.858;2023-05-07T15:18:42;5.87;;;2.13;;
23123;SDS011;11731;48.592;8.858;2023-05-07T15:21:09;2.57;;;2.30;;